Alice Town, Bahamas

5:42 PM EDT on May 22, 2015 (GMT -0400)
Miami International | | Change Station
CLOSE
Current Station
Airport
Location: Miami,
Elevation: 13 ft
Nearby Weather Stations

Elev 13 ft 25.79 °N, 80.32 °W | Updated 15 minutes ago

Thunderstorm
Thunderstorm
85 °F
Feels Like 90 °F
N
7
Wind Variable Wind from Variable

Today
High -- | Low -- °F
--% Chance of Precip.
Yesterday
High -- | Low -- °F
Precip. -- in
6:28 AM 7:59 PM
Waxing Crescent, 24% visible
Pressure 30.09 in
Visibility 10.0 miles
Clouds Scattered Clouds 2500 ft
Scattered Clouds 8000 ft
Scattered Clouds 20000 ft
Mostly Cloudy 30000 ft
Heat Index 90 °F
Dew Point 71 °F
Humidity 63%
Rainfall 0.08 in
Snow Depth Not available.
UV 2 out of 12
Pollen Not available.
Air Quality Not available.
Flu Activity Not available.
SPECI KMIA 222127Z VRB06KT 10SM TS SCT025CB SCT080 SCT200 BKN300 29/22 A3009 RMK AO2 TSB27 FRQ LTGICCG NW TS NW MOV STNRY CB DSNT SW-NW T02940217

More Conditions Fewer Conditions

Pressure 30.09 in
Visibility 10.0 miles
Clouds Scattered Clouds 2500 ft
Scattered Clouds 8000 ft
Scattered Clouds 20000 ft
Mostly Cloudy 30000 ft
Heat Index 90 °F
Dew Point 71 °F
Humidity 63%
Rainfall 0.08 in
Snow Depth Not available.
UV 2 out of 12
Pollen Not available.
Air Quality Not available.
Flu Activity Not available.
SPECI KMIA 222127Z VRB06KT 10SM TS SCT025CB SCT080 SCT200 BKN300 29/22 A3009 RMK AO2 TSB27 FRQ LTGICCG NW TS NW MOV STNRY CB DSNT SW-NW T02940217

More Conditions Fewer Conditions

10-Day Weather Forecast

Almanac

Astronomy

May. 22, 2015 Rise Set
Actual Time
Civil Twilight
Nautical Twilight
Astronomical Twilight
Moon
Length of Visible Light
Length of Day
Tomorrow will be .
, % of the Moon is Illuminated

Today's Extremes

Country Highs Country Lows

Community

WunderPhotos

Upload Photos

1,823,317 photos uploaded!

WunderBlogs® & News

Nearby

Air Quality

  Air Quality AQ Index Pollutant
Not available.

Snow Depth

Station Depth Elevation

Earthquake Activity

City Distance Mag. Time & Date
Minimum magnitude displayed is 2.5.

Coastal Water Temperatures

Place Temperature

Stations

Nearby Weather Stations

Station Location Temp. Windchill Dew Point Humidity Wind Precip. Elev Updated Type